createdAt,value
2019-04-06T04:00:55.098Z,9.81
2019-04-06T04:01:55.225Z,9.74
2019-04-06T04:03:47.633Z,9.85
2019-04-06T04:04:47.526Z,9.78
2019-04-06T04:06:40.413Z,9.80
2019-04-06T04:07:40.223Z,9.84
2019-04-06T04:09:32.770Z,9.82
2019-04-06T04:10:32.632Z,9.77
2019-04-06T04:12:25.325Z,9.82
2019-04-06T04:13:25.412Z,9.84
2019-04-06T04:15:18.140Z,9.81
2019-04-06T04:16:17.753Z,9.85
2019-04-06T04:18:10.440Z,9.84
2019-04-06T04:19:10.311Z,9.89
2019-04-06T04:21:02.981Z,9.82
2019-04-06T04:22:02.867Z,9.82
2019-04-06T04:23:55.550Z,9.85
2019-04-06T04:24:55.423Z,9.89
2019-04-06T04:26:48.099Z,9.81
2019-04-06T04:27:47.972Z,9.96
2019-04-06T04:29:40.745Z,9.99
2019-04-06T04:30:40.962Z,9.95
2019-04-06T04:32:33.268Z,9.85
2019-04-06T04:33:33.164Z,9.95
2019-04-06T04:35:25.834Z,9.85
2019-04-06T04:36:25.712Z,9.99
2019-04-06T04:38:18.371Z,9.88
2019-04-06T04:39:18.263Z,9.92
2019-04-06T04:41:10.947Z,9.85
2019-04-06T04:42:10.817Z,9.98
2019-04-06T04:44:03.508Z,9.84
2019-04-06T04:45:03.370Z,9.92
2019-04-06T04:46:56.285Z,9.99
2019-04-06T04:47:55.940Z,9.95
2019-04-06T04:49:48.621Z,9.85
2019-04-06T04:50:48.482Z,9.84
2019-04-06T04:52:41.169Z,9.89
2019-04-06T04:53:41.043Z,9.89
2019-04-06T04:55:33.735Z,9.89
2019-04-06T04:56:33.607Z,9.88
2019-04-06T04:58:26.267Z,9.98
2019-04-06T04:59:26.335Z,9.93
2019-04-06T05:01:18.855Z,9.98
2019-04-06T05:02:18.726Z,9.99
2019-04-06T05:04:11.386Z,9.92
2019-04-06T05:05:11.275Z,9.95
2019-04-06T05:07:03.966Z,9.89
2019-04-06T05:08:03.901Z,9.99
2019-04-06T05:09:56.495Z,9.95
2019-04-06T05:10:56.386Z,9.96
2019-04-06T05:12:49.084Z,9.88
2019-04-06T05:13:48.950Z,9.88
2019-04-06T05:15:41.627Z,9.99
2019-04-06T05:16:41.510Z,9.99
2019-04-06T05:18:34.199Z,10.07
2019-04-06T05:19:34.073Z,10.03
2019-04-06T05:21:26.739Z,10.03
2019-04-06T05:22:26.632Z,10.11
2019-04-06T05:24:19.310Z,10.08
2019-04-06T05:25:19.184Z,10.13
2019-04-06T05:27:11.847Z,10.10
2019-04-06T05:28:11.827Z,10.05
2019-04-06T05:30:04.421Z,10.14
2019-04-06T05:31:04.285Z,10.13
2019-04-06T05:32:56.959Z,10.18
2019-04-06T05:33:56.843Z,10.29
2019-04-06T05:35:49.531Z,10.18
2019-04-06T05:36:49.404Z,10.31
2019-04-06T05:38:42.075Z,10.36
2019-04-06T05:39:41.959Z,10.39
2019-04-06T05:41:34.649Z,10.29
2019-04-06T05:42:34.524Z,10.41
2019-04-06T05:44:27.194Z,10.32
2019-04-06T05:45:27.076Z,10.38
2019-04-06T05:47:19.762Z,10.33
2019-04-06T05:48:19.647Z,10.41
2019-04-06T05:50:12.323Z,10.41
2019-04-06T05:51:12.187Z,10.35
2019-04-06T05:53:04.856Z,10.47
2019-04-06T05:54:04.775Z,10.44
2019-04-06T05:55:57.432Z,10.49
2019-04-06T05:56:57.302Z,10.42
2019-04-06T05:58:49.999Z,10.55
2019-04-06T05:59:49.872Z,10.61
2019-04-06T06:01:42.614Z,10.54
2019-04-06T06:02:42.417Z,10.57
2019-04-06T06:04:35.090Z,10.57
2019-04-06T06:05:34.975Z,10.61
2019-04-06T06:07:27.664Z,10.67
2019-04-06T06:08:27.579Z,10.65
2019-04-06T06:10:20.213Z,10.69
2019-04-06T06:11:20.103Z,10.66
2019-04-06T06:13:12.788Z,10.84
2019-04-06T06:14:12.654Z,10.94
2019-04-06T06:16:05.323Z,11.00
2019-04-06T06:17:05.217Z,11.09
2019-04-06T06:18:57.896Z,11.16
2019-04-06T06:19:57.777Z,11.16
2019-04-06T06:21:50.439Z,11.16
2019-04-06T06:22:50.331Z,11.16
2019-04-06T06:24:43.022Z,11.18
2019-04-06T06:25:42.898Z,11.28
2019-04-06T06:27:35.565Z,11.21
2019-04-06T06:28:35.457Z,11.27
2019-04-06T06:30:28.140Z,11.35
2019-04-06T06:31:28.025Z,11.43
2019-04-06T06:33:20.689Z,11.34
2019-04-06T06:34:20.584Z,11.48
2019-04-06T06:36:13.264Z,11.59
2019-04-06T06:37:13.135Z,11.56
2019-04-06T06:39:06.018Z,11.63
2019-04-06T06:40:05.700Z,11.68
2019-04-06T06:41:58.373Z,11.67
2019-04-06T06:42:58.261Z,11.64
2019-04-06T06:44:51.054Z,11.78
2019-04-06T06:45:50.829Z,11.84
2019-04-06T06:47:43.504Z,12.04
2019-04-06T06:48:43.423Z,12.03
2019-04-06T06:50:36.080Z,12.20
2019-04-06T06:51:36.008Z,12.07
2019-04-06T06:53:28.632Z,12.16
2019-04-06T06:54:28.593Z,12.20
2019-04-06T06:56:21.214Z,12.16
2019-04-06T06:57:21.091Z,12.07
2019-04-06T06:59:13.767Z,11.95
2019-04-06T07:00:13.641Z,11.88
2019-04-06T07:02:06.345Z,11.86
2019-04-06T07:03:06.215Z,11.86
2019-04-06T07:04:58.906Z,11.97
2019-04-06T07:05:58.968Z,12.03
2019-04-06T07:07:51.455Z,12.19
2019-04-06T07:08:51.392Z,12.03
2019-04-06T07:10:44.048Z,12.16
2019-04-06T07:11:43.914Z,12.20
2019-04-06T07:13:36.750Z,12.23
2019-04-06T07:14:36.476Z,12.36
2019-04-06T07:16:29.170Z,12.65
2019-04-06T07:17:29.041Z,12.62
2019-04-06T07:19:21.712Z,12.89
2019-04-06T07:20:21.603Z,12.96
2019-04-06T07:22:14.469Z,12.95
2019-04-06T07:23:14.163Z,12.84
2019-04-06T07:25:06.842Z,12.77
2019-04-06T07:26:06.879Z,12.70
2019-04-06T07:27:59.429Z,12.63
2019-04-06T07:28:59.291Z,12.78
2019-04-06T07:30:51.996Z,12.74
2019-04-06T07:31:51.865Z,12.77
2019-04-06T07:33:44.545Z,12.92
2019-04-06T07:34:44.425Z,12.86
2019-04-06T07:36:37.108Z,12.63
2019-04-06T07:37:36.987Z,12.77
2019-04-06T07:39:29.654Z,12.74
2019-04-06T07:40:29.776Z,12.84
2019-04-06T07:42:22.347Z,12.71
2019-04-06T07:43:22.104Z,12.73
2019-04-06T07:45:14.780Z,12.63
2019-04-06T07:46:14.682Z,12.65
2019-04-06T07:48:07.619Z,12.71
2019-04-06T07:49:10.330Z,12.78
2019-04-06T07:50:59.914Z,12.61
2019-04-06T07:51:59.811Z,12.70
2019-04-06T07:53:52.500Z,12.70
2019-04-06T07:54:52.604Z,12.76
2019-04-06T07:56:45.064Z,12.78
2019-04-06T07:57:45.145Z,12.70
2019-04-06T07:59:37.649Z,12.62
2019-04-06T08:00:37.572Z,12.63
2019-04-06T08:02:30.212Z,12.59
2019-04-06T08:03:30.260Z,12.51
2019-04-06T08:05:22.749Z,12.66
2019-04-06T08:06:22.689Z,12.76
2019-04-06T08:08:15.342Z,12.88
2019-04-06T08:09:15.202Z,12.96
2019-04-06T08:11:08.064Z,12.99
2019-04-06T08:12:07.849Z,12.99
2019-04-06T08:14:00.473Z,13.03
2019-04-06T08:15:00.333Z,12.96
2019-04-06T08:16:53.027Z,13.06
2019-04-06T08:17:52.999Z,13.17
2019-04-06T08:19:45.588Z,13.39
2019-04-06T08:20:45.479Z,13.44
2019-04-06T08:22:38.127Z,13.40
2019-04-06T08:23:38.022Z,13.50
2019-04-06T08:25:30.743Z,13.53
2019-04-06T08:26:30.696Z,13.50
2019-04-06T08:28:23.509Z,13.45
2019-04-06T08:29:23.188Z,13.48
2019-04-06T08:31:15.869Z,13.62
2019-04-06T08:32:15.743Z,13.68
2019-04-06T08:34:08.417Z,13.63
2019-04-06T08:35:08.316Z,13.73
2019-04-06T08:37:01.171Z,13.86
2019-04-06T08:38:00.890Z,13.94
2019-04-06T08:39:53.650Z,13.94
2019-04-06T08:40:53.460Z,14.06
2019-04-06T08:42:46.346Z,14.45
2019-04-06T08:43:46.027Z,14.63
2019-04-06T08:45:38.774Z,14.75
2019-04-06T08:46:38.605Z,14.87
2019-04-06T08:48:31.454Z,15.02
2019-04-06T08:49:31.168Z,15.04
2019-04-06T08:51:23.861Z,15.20
2019-04-06T08:52:23.749Z,15.16
2019-04-06T08:54:16.444Z,15.27
2019-04-06T08:55:16.306Z,15.20
2019-04-06T08:57:08.989Z,15.34
2019-04-06T08:58:08.896Z,15.38
2019-04-06T09:00:01.570Z,15.30
2019-04-06T09:01:01.456Z,15.45
2019-04-06T09:02:54.157Z,15.25
2019-04-06T09:03:54.026Z,15.25
2019-04-06T09:05:46.854Z,15.30
2019-04-06T09:06:46.619Z,15.31
2019-04-06T09:08:39.326Z,15.47
2019-04-06T09:09:39.189Z,15.62
2019-04-06T09:11:31.884Z,15.73
2019-04-06T09:12:31.770Z,15.77
2019-04-06T09:14:24.457Z,15.63
2019-04-06T09:15:24.341Z,15.53
2019-04-06T09:17:17.026Z,15.49
2019-04-06T09:18:17.157Z,15.67
2019-04-06T09:20:09.933Z,15.78
2019-04-06T09:21:10.069Z,15.99
2019-04-06T09:23:03.449Z,16.02
2019-04-06T09:24:04.872Z,16.00
2019-04-06T09:25:55.989Z,15.73
2019-04-06T09:26:55.697Z,15.34
2019-04-06T09:28:48.821Z,15.38
2019-04-06T09:29:48.131Z,15.47
2019-04-06T09:31:40.870Z,15.65
2019-04-06T09:32:41.400Z,15.63
2019-04-06T09:34:33.673Z,15.84
2019-04-06T09:35:33.669Z,15.98
2019-04-06T09:37:26.988Z,16.39
2019-04-06T09:38:26.805Z,16.36
2019-04-06T09:40:19.413Z,16.11
2019-04-06T09:41:19.585Z,15.99
2019-04-06T09:43:12.292Z,15.65
2019-04-06T09:44:12.042Z,15.63
2019-04-06T09:46:05.729Z,15.75
2019-04-06T09:47:05.612Z,15.84
2019-04-06T09:48:58.292Z,16.14
2019-04-06T09:49:58.189Z,16.08
2019-04-06T09:51:50.886Z,16.04
2019-04-06T09:52:50.763Z,16.08
2019-04-06T09:54:43.454Z,16.16
2019-04-06T09:55:43.351Z,16.21
2019-04-06T09:57:36.047Z,16.29
2019-04-06T09:58:35.927Z,16.22
2019-04-06T10:00:28.830Z,16.14
2019-04-06T10:01:38.539Z,16.18
2019-04-06T10:03:21.204Z,15.89
2019-04-06T10:04:21.070Z,15.83
2019-04-06T10:06:13.753Z,16.10
2019-04-06T10:07:13.650Z,16.10
2019-04-06T10:09:06.349Z,16.27
2019-04-06T10:10:06.221Z,16.02
2019-04-06T10:11:59.120Z,16.16
2019-04-06T10:12:58.934Z,16.13
2019-04-06T10:14:51.771Z,16.21
2019-04-06T10:15:51.371Z,16.29
2019-04-06T10:17:44.047Z,16.06
2019-04-06T10:18:43.939Z,16.07
2019-04-06T10:20:36.635Z,16.29
2019-04-06T10:21:36.516Z,16.39
2019-04-06T10:23:29.198Z,16.58
2019-04-06T10:24:29.091Z,16.67
2019-04-06T10:26:21.784Z,16.65
2019-04-06T10:27:21.665Z,16.69
2019-04-06T10:29:14.342Z,16.62
2019-04-06T10:30:14.587Z,16.73
2019-04-06T10:32:06.946Z,16.82
2019-04-06T10:33:06.821Z,16.66
2019-04-06T10:34:59.499Z,16.69
2019-04-06T10:35:59.645Z,16.59
2019-04-06T10:37:52.095Z,16.32
2019-04-06T10:38:51.997Z,16.13
2019-04-06T10:40:44.661Z,16.29
2019-04-06T10:41:44.561Z,16.27
2019-04-06T10:43:37.251Z,16.30
2019-04-06T10:44:37.124Z,16.34
2019-04-06T10:46:29.807Z,16.42
2019-04-06T10:47:29.705Z,16.58
2019-04-06T10:49:22.407Z,16.48
2019-04-06T10:50:22.642Z,16.33
2019-04-06T10:52:14.970Z,16.29
2019-04-06T10:53:14.869Z,16.27
2019-04-06T10:55:07.565Z,16.08
2019-04-06T10:56:07.446Z,15.96
2019-04-06T10:58:00.250Z,16.10
2019-04-06T10:59:02.439Z,16.13
2019-04-06T11:00:52.711Z,16.14
2019-04-06T11:01:52.866Z,16.13
2019-04-06T11:03:45.409Z,16.54
2019-04-06T11:04:45.169Z,16.57
2019-04-06T11:06:37.853Z,16.69
2019-04-06T11:07:38.220Z,16.87
2019-04-06T11:09:30.422Z,16.84
2019-04-06T11:10:30.308Z,16.92
2019-04-06T11:12:23.026Z,17.09
2019-04-06T11:13:22.898Z,16.99
2019-04-06T11:15:15.866Z,17.15
2019-04-06T11:16:15.652Z,17.25
2019-04-06T11:18:08.174Z,17.49
2019-04-06T11:19:08.053Z,17.73
2019-04-06T11:21:00.735Z,17.86
2019-04-06T11:22:00.637Z,17.92
2019-04-06T11:23:53.529Z,18.21
2019-04-06T11:24:53.216Z,18.26
2019-04-06T11:26:45.891Z,18.27
2019-04-06T11:27:45.812Z,18.31
2019-04-06T11:29:38.554Z,18.74
2019-04-06T11:30:38.536Z,18.79
2019-04-06T11:32:31.056Z,18.71
2019-04-06T11:33:30.950Z,18.63
2019-04-06T11:35:23.701Z,18.49
2019-04-06T11:36:23.584Z,18.32
2019-04-06T11:38:16.230Z,18.03
2019-04-06T11:39:16.266Z,17.98
2019-04-06T11:41:08.848Z,18.01
2019-04-06T11:42:08.690Z,18.05
2019-04-06T11:44:01.487Z,18.34
2019-04-06T11:45:01.274Z,18.56
2019-04-06T11:46:53.962Z,18.60
2019-04-06T11:47:54.060Z,18.68
2019-04-06T11:49:46.533Z,18.75
2019-04-06T11:50:46.424Z,18.68
2019-04-06T11:52:39.397Z,18.72
2019-04-06T11:53:39.015Z,18.72
2019-04-06T11:55:31.845Z,18.89
2019-04-06T11:56:31.603Z,18.96
2019-04-06T11:58:24.538Z,19.23
2019-04-06T11:59:24.177Z,19.17
2019-04-06T12:01:17.217Z,19.20
2019-04-06T12:02:16.763Z,19.10
2019-04-06T12:04:09.465Z,19.13
2019-04-06T12:05:09.350Z,19.02
2019-04-06T12:07:02.057Z,19.00
2019-04-06T12:08:01.930Z,19.00
2019-04-06T12:09:54.859Z,18.96
2019-04-06T12:10:54.505Z,18.99
2019-04-06T12:12:47.199Z,18.60
2019-04-06T12:13:47.188Z,18.53
2019-04-06T12:15:39.797Z,18.19
2019-04-06T12:16:39.681Z,18.13
2019-04-06T12:18:32.636Z,18.11
2019-04-06T12:19:32.260Z,18.29
2019-04-06T12:21:25.180Z,18.72
2019-04-06T12:22:24.875Z,18.84
2019-04-06T12:24:17.522Z,18.79
2019-04-06T12:25:17.413Z,18.90
2019-04-06T12:27:10.109Z,19.00
2019-04-06T12:28:09.994Z,18.97
2019-04-06T12:30:02.688Z,19.06
2019-04-06T12:31:02.571Z,19.17
2019-04-06T12:32:55.261Z,19.32
2019-04-06T12:33:55.154Z,19.34
2019-04-06T12:35:47.835Z,19.40
2019-04-06T12:36:47.731Z,19.43
2019-04-06T12:38:40.434Z,19.57
2019-04-06T12:39:51.400Z,19.67
2019-04-06T12:41:33.043Z,19.85
2019-04-06T12:42:32.927Z,19.89
2019-04-06T12:44:25.611Z,20.05
2019-04-06T12:45:25.490Z,19.85
2019-04-06T12:47:18.237Z,19.74
2019-04-06T12:48:18.334Z,19.87
2019-04-06T12:50:10.775Z,19.98
2019-04-06T12:51:10.688Z,20.12
2019-04-06T12:53:03.511Z,20.32
2019-04-06T12:54:03.382Z,20.26
2019-04-06T12:55:55.944Z,20.11
2019-04-06T12:56:55.819Z,19.98
2019-04-06T12:58:48.741Z,19.82
2019-04-06T12:59:48.399Z,19.71
2019-04-06T13:01:41.104Z,19.98
2019-04-06T13:02:40.983Z,19.93
2019-04-06T13:04:33.691Z,20.15
2019-04-06T13:05:33.583Z,20.02
2019-04-06T13:07:26.284Z,19.78
2019-04-06T13:08:26.172Z,19.49
2019-04-06T13:10:18.844Z,19.64
2019-04-06T13:11:19.900Z,19.55
2019-04-06T13:13:11.477Z,19.45
2019-04-06T13:14:11.344Z,19.38
2019-04-06T13:16:04.035Z,19.17
2019-04-06T13:17:04.285Z,19.32
2019-04-06T13:18:56.639Z,19.46
2019-04-06T13:19:56.519Z,19.53
2019-04-06T13:21:49.702Z,19.65
2019-04-06T13:22:49.130Z,19.65
2019-04-06T13:24:41.820Z,19.71
2019-04-06T13:25:41.705Z,19.71
2019-04-06T13:27:34.393Z,19.53
2019-04-06T13:28:34.468Z,19.53
2019-04-06T13:30:27.211Z,19.37
2019-04-06T13:31:26.863Z,19.35
2019-04-06T13:33:19.548Z,19.40
2019-04-06T13:34:19.490Z,19.31
2019-04-06T13:36:12.322Z,19.28
2019-04-06T13:37:12.020Z,19.12
2019-04-06T13:39:04.711Z,18.89
2019-04-06T13:40:04.606Z,18.81
2019-04-06T13:41:57.497Z,18.65
2019-04-06T13:42:57.258Z,18.53
2019-04-06T13:44:49.902Z,18.59
2019-04-06T13:45:49.789Z,18.63
2019-04-06T13:47:42.511Z,18.71
2019-04-06T13:48:42.375Z,18.74
2019-04-06T13:50:35.089Z,18.76
2019-04-06T13:51:35.543Z,18.82
2019-04-06T13:53:28.176Z,18.82
2019-04-06T13:54:28.041Z,18.86
2019-04-06T13:56:20.737Z,18.71
2019-04-06T13:57:20.710Z,18.61
2019-04-06T13:59:13.310Z,18.54
2019-04-06T14:00:13.381Z,18.45
2019-04-06T14:02:05.998Z,18.63
2019-04-06T14:03:05.861Z,18.66
2019-04-06T14:04:58.606Z,18.69
2019-04-06T14:05:58.364Z,18.86
2019-04-06T14:07:51.061Z,18.79
2019-04-06T14:08:50.943Z,18.79
2019-04-06T14:10:43.647Z,18.89
2019-04-06T14:11:43.531Z,18.87
2019-04-06T14:13:36.289Z,18.96
2019-04-06T14:14:36.130Z,18.99
2019-04-06T14:16:28.823Z,19.34
2019-04-06T14:17:28.703Z,19.45
2019-04-06T14:19:21.679Z,19.63
2019-04-06T14:20:21.422Z,19.71
2019-04-06T14:22:13.986Z,19.71
2019-04-06T14:23:13.863Z,19.72
2019-04-06T14:25:06.997Z,19.80
2019-04-06T14:26:06.505Z,19.72
2019-04-06T14:27:59.168Z,19.71
2019-04-06T14:28:59.392Z,19.52
2019-04-06T14:30:51.701Z,19.50
2019-04-06T14:31:51.772Z,19.52
2019-04-06T14:33:44.302Z,19.60
2019-04-06T14:34:44.196Z,19.60
2019-04-06T14:36:36.877Z,19.57
2019-04-06T14:37:36.763Z,19.63
2019-04-06T14:39:29.681Z,19.70
2019-04-06T14:40:29.360Z,19.75
2019-04-06T14:42:22.041Z,19.71
2019-04-06T14:43:22.436Z,19.57
2019-04-06T14:45:14.673Z,19.53
2019-04-06T14:46:14.512Z,19.61
2019-04-06T14:48:09.430Z,19.49
2019-04-06T14:49:13.927Z,19.63
2019-04-06T14:50:59.806Z,19.52
2019-04-06T14:51:59.665Z,19.63
2019-04-06T14:53:52.415Z,19.45
2019-04-06T14:54:52.247Z,19.43
2019-04-06T14:56:44.993Z,19.47
2019-04-06T14:57:45.188Z,19.45
2019-04-06T14:59:37.765Z,19.46
2019-04-06T15:00:37.429Z,19.46
2019-04-06T15:02:30.166Z,19.64
2019-04-06T15:03:30.256Z,19.50
2019-04-06T15:05:22.716Z,19.50
2019-04-06T15:06:22.803Z,19.61
2019-04-06T15:08:15.278Z,19.82
2019-04-06T15:09:15.316Z,19.82
2019-04-06T15:11:07.878Z,19.83
2019-04-06T15:12:07.829Z,19.82
2019-04-06T15:14:00.437Z,19.70
2019-04-06T15:15:00.477Z,19.82
2019-04-06T15:16:53.028Z,19.70
2019-04-06T15:17:54.802Z,19.71
2019-04-06T15:19:45.621Z,19.71
2019-04-06T15:20:45.482Z,19.79
2019-04-06T15:22:38.180Z,19.82
2019-04-06T15:23:38.058Z,19.85
2019-04-06T15:25:31.051Z,19.85
2019-04-06T15:26:30.857Z,19.85
2019-04-06T15:28:23.335Z,19.80
2019-04-06T15:29:23.219Z,19.83
2019-04-06T15:31:15.898Z,19.82
2019-04-06T15:32:15.801Z,19.85
2019-04-06T15:34:08.519Z,19.92
2019-04-06T15:35:08.391Z,19.95
2019-04-06T15:37:01.086Z,19.80
2019-04-06T15:38:00.981Z,19.78
2019-04-06T15:39:53.669Z,19.90
2019-04-06T15:40:53.638Z,19.90
2019-04-06T15:42:46.248Z,19.72
2019-04-06T15:43:46.130Z,19.55
2019-04-06T15:45:39.093Z,19.45
2019-04-06T15:46:38.712Z,19.38
2019-04-06T15:48:38.745Z,19.16
2019-04-06T15:49:31.481Z,19.02
2019-04-06T15:51:23.973Z,18.87
2019-04-06T15:52:23.866Z,18.99
2019-04-06T15:54:16.566Z,19.05
2019-04-06T15:55:16.451Z,18.86
2019-04-06T15:57:09.144Z,18.90
2019-04-06T15:58:09.469Z,18.99
2019-04-06T16:00:01.964Z,18.87
2019-04-06T16:01:01.616Z,19.02
2019-04-06T16:02:54.308Z,18.99
2019-04-06T16:03:54.409Z,19.09
2019-04-06T16:05:46.999Z,19.20
2019-04-06T16:06:46.868Z,19.31
2019-04-06T16:08:39.658Z,19.35
2019-04-06T16:09:41.643Z,19.46
2019-04-06T16:11:32.153Z,19.38
2019-04-06T16:12:32.095Z,19.38
2019-04-06T16:14:24.850Z,19.37
2019-04-06T16:15:25.189Z,19.38
2019-04-06T16:17:17.312Z,19.46
2019-04-06T16:18:17.593Z,19.46
2019-04-06T16:20:10.321Z,19.60
2019-04-06T16:21:09.764Z,19.50
2019-04-06T16:23:02.471Z,19.61
2019-04-06T16:24:04.669Z,19.68
2019-04-06T16:25:55.523Z,19.65
2019-04-06T16:26:55.419Z,19.74
2019-04-06T16:28:48.127Z,19.72
2019-04-06T16:29:47.993Z,19.68
2019-04-06T16:31:40.928Z,19.78
2019-04-06T16:32:41.111Z,19.64
2019-04-06T16:34:34.202Z,19.72
2019-04-06T16:35:33.739Z,19.61
2019-04-06T16:37:26.180Z,19.52
2019-04-06T16:38:26.018Z,19.63
2019-04-06T16:40:18.767Z,19.60
2019-04-06T16:41:18.675Z,19.53
2019-04-06T16:43:11.239Z,19.30
2019-04-06T16:44:11.122Z,19.35
2019-04-06T16:46:03.818Z,19.43
2019-04-06T16:47:03.693Z,19.55
2019-04-06T16:48:56.858Z,19.65
2019-04-06T16:49:56.695Z,19.61
2019-04-06T16:51:48.972Z,19.90
2019-04-06T16:52:48.847Z,19.82
2019-04-06T16:54:41.538Z,19.79
2019-04-06T16:55:41.801Z,19.90
2019-04-06T16:57:34.127Z,19.70
2019-04-06T16:58:34.004Z,19.61
2019-04-06T17:00:27.152Z,19.42
2019-04-06T17:01:26.586Z,19.19
2019-04-06T17:03:19.285Z,18.89
2019-04-06T17:04:19.234Z,18.79
2019-04-06T17:06:11.882Z,18.68
2019-04-06T17:07:11.733Z,18.72
2019-04-06T17:09:04.912Z,18.63
2019-04-06T17:10:04.342Z,18.63
2019-04-06T17:11:57.000Z,18.47
2019-04-06T17:12:56.950Z,18.51
2019-04-06T17:14:49.582Z,18.38
2019-04-06T17:15:49.486Z,18.41
2019-04-06T17:17:42.151Z,18.26
2019-04-06T17:18:42.170Z,18.29
2019-04-06T17:20:34.752Z,18.29
2019-04-06T17:21:34.647Z,18.21
2019-04-06T17:23:27.301Z,18.13
2019-04-06T17:24:27.202Z,18.05
2019-04-06T17:26:19.903Z,18.08
2019-04-06T17:27:19.953Z,18.06
2019-04-06T17:29:12.570Z,17.94
2019-04-06T17:30:12.460Z,18.02
2019-04-06T17:32:05.259Z,17.88
2019-04-06T17:33:05.331Z,17.88
2019-04-06T17:34:57.807Z,17.83
2019-04-06T17:35:57.601Z,17.87
2019-04-06T17:37:50.335Z,17.81
2019-04-06T17:38:50.201Z,17.77
2019-04-06T17:40:42.866Z,17.83
2019-04-06T17:41:42.916Z,17.84
2019-04-06T17:43:35.545Z,17.65
2019-04-06T17:44:35.328Z,17.63
2019-04-06T17:46:28.011Z,17.65
2019-04-06T17:47:27.903Z,17.62
2019-04-06T17:49:22.280Z,17.55
2019-04-06T17:50:20.798Z,17.52
2019-04-06T17:52:13.162Z,17.55
2019-04-06T17:53:13.554Z,17.49
2019-04-06T17:55:05.871Z,17.38
2019-04-06T17:56:05.622Z,17.42
2019-04-06T17:57:58.305Z,17.42
2019-04-06T17:58:58.209Z,17.39
2019-04-06T18:00:50.906Z,17.30
2019-04-06T18:01:51.074Z,17.28
2019-04-06T18:03:43.447Z,17.30
2019-04-06T18:04:43.650Z,17.31
2019-04-06T18:06:36.042Z,17.21
2019-04-06T18:07:35.923Z,17.21
2019-04-06T18:09:28.598Z,17.18
2019-04-06T18:10:28.961Z,17.15
2019-04-06T18:12:21.205Z,17.10
2019-04-06T18:13:21.057Z,17.12
2019-04-06T18:15:14.171Z,17.10
2019-04-06T18:16:13.764Z,17.05
2019-04-06T18:18:06.342Z,17.05
2019-04-06T18:19:06.206Z,17.05
2019-04-06T18:20:58.876Z,17.03
2019-04-06T18:21:58.765Z,16.94
2019-04-06T18:23:51.464Z,16.87
2019-04-06T18:24:51.536Z,16.80
2019-04-06T18:26:44.013Z,16.80
2019-04-06T18:27:43.901Z,16.69
2019-04-06T18:29:36.598Z,16.74
2019-04-06T18:30:36.477Z,16.66
2019-04-06T18:32:29.298Z,16.66
2019-04-06T18:33:29.325Z,16.57
2019-04-06T18:35:21.732Z,16.58
2019-04-06T18:36:21.795Z,16.57
2019-04-06T18:38:14.820Z,16.49
2019-04-06T18:39:14.193Z,16.51
2019-04-06T18:41:06.942Z,16.39
2019-04-06T18:42:06.760Z,16.33
2019-04-06T18:43:59.453Z,16.32
2019-04-06T18:44:59.907Z,16.25
2019-04-06T18:46:52.003Z,16.08
2019-04-06T18:47:51.974Z,16.13
2019-04-06T18:49:44.585Z,15.92
2019-04-06T18:50:44.457Z,15.95
2019-04-06T18:52:37.310Z,15.83
2019-04-06T18:53:37.096Z,15.86
2019-04-06T18:55:29.722Z,15.73
2019-04-06T18:56:29.908Z,15.71
2019-04-06T18:58:22.288Z,15.63
2019-04-06T18:59:22.171Z,15.67
2019-04-06T19:01:14.891Z,15.47
2019-04-06T19:02:14.806Z,15.49
2019-04-06T19:04:07.788Z,15.44
2019-04-06T19:05:07.694Z,15.47
2019-04-06T19:07:00.331Z,15.37
2019-04-06T19:07:59.878Z,15.44
2019-04-06T19:09:52.556Z,15.37
2019-04-06T19:10:52.648Z,15.37
2019-04-06T19:12:45.111Z,15.31
2019-04-06T19:13:45.483Z,15.27
2019-04-06T19:15:37.762Z,15.16
2019-04-06T19:16:37.693Z,15.13
2019-04-06T19:18:30.755Z,15.16
2019-04-06T19:19:30.155Z,15.13
2019-04-06T19:21:22.990Z,15.08
2019-04-06T19:22:22.841Z,15.05
2019-04-06T19:24:15.501Z,15.05
2019-04-06T19:25:15.327Z,15.00
2019-04-06T19:27:08.202Z,14.94
2019-04-06T19:28:07.854Z,14.90
2019-04-06T19:30:00.544Z,14.90
2019-04-06T19:31:00.846Z,14.93
2019-04-06T19:32:53.101Z,14.82
2019-04-06T19:33:53.006Z,14.82
2019-04-06T19:35:46.126Z,14.85
2019-04-06T19:36:45.564Z,14.79
2019-04-06T19:38:38.240Z,14.74
2019-04-06T19:39:38.143Z,14.71
2019-04-06T19:41:30.818Z,14.74
2019-04-06T19:42:30.781Z,14.64
2019-04-06T19:44:23.402Z,14.63
2019-04-06T19:45:23.259Z,14.66
2019-04-06T19:47:15.939Z,14.60
2019-04-06T19:48:15.834Z,14.59
2019-04-06T19:50:08.523Z,14.57
2019-04-06T19:51:08.705Z,14.52
2019-04-06T19:53:01.077Z,14.51
2019-04-06T19:54:00.986Z,14.48
2019-04-06T19:55:54.652Z,14.33
2019-04-06T19:56:54.098Z,14.34
2019-04-06T19:58:46.513Z,14.28
2019-04-06T19:59:46.102Z,14.24
2019-04-06T20:01:38.796Z,14.23
2019-04-06T20:02:39.147Z,14.24
2019-04-06T20:04:31.343Z,14.24
2019-04-06T20:05:31.229Z,14.13
2019-04-06T20:07:24.005Z,14.19
2019-04-06T20:08:23.890Z,14.20
2019-04-06T20:10:16.751Z,14.23
2019-04-06T20:11:16.529Z,14.09
2019-04-06T20:13:09.298Z,14.01
2019-04-06T20:14:09.582Z,14.01
2019-04-06T20:16:02.105Z,14.03
2019-04-06T20:17:02.037Z,14.12
2019-04-06T20:18:54.340Z,14.11
2019-04-06T20:19:54.149Z,14.13
2019-04-06T20:21:46.814Z,14.15
2019-04-06T20:22:46.939Z,14.11
2019-04-06T20:24:39.368Z,14.05
2019-04-06T20:25:39.720Z,14.05
2019-04-06T20:27:31.951Z,14.05
2019-04-06T20:28:32.075Z,14.05
2019-04-06T20:30:24.495Z,13.94
2019-04-06T20:31:24.389Z,14.01
2019-04-06T20:33:19.214Z,13.88
2019-04-06T20:34:17.505Z,13.91
2019-04-06T20:36:09.629Z,13.83
2019-04-06T20:37:09.522Z,13.73
2019-04-06T20:39:02.223Z,13.63
2019-04-06T20:40:02.097Z,13.65
2019-04-06T20:41:54.772Z,13.58
2019-04-06T20:42:55.136Z,13.66
2019-04-06T20:44:47.346Z,13.63
2019-04-06T20:45:47.233Z,13.58
2019-04-06T20:47:39.916Z,13.53
2019-04-06T20:48:40.088Z,13.53
2019-04-06T20:50:32.465Z,13.54
2019-04-06T20:51:32.355Z,13.42
2019-04-06T20:53:25.311Z,13.40
2019-04-06T20:54:24.914Z,13.40
2019-04-06T20:56:17.626Z,13.29
2019-04-06T20:57:19.930Z,13.31
2019-04-06T20:59:10.296Z,13.24
2019-04-06T21:00:10.075Z,13.27
2019-04-06T21:02:02.950Z,13.25
2019-04-06T21:03:04.823Z,13.21
2019-04-06T21:04:55.342Z,13.21
2019-04-06T21:05:55.474Z,13.19
2019-04-06T21:07:48.375Z,13.10
2019-04-06T21:08:48.091Z,13.17
2019-04-06T21:10:40.755Z,13.07
2019-04-06T21:11:40.475Z,13.07
2019-04-06T21:13:33.070Z,13.06
2019-04-06T21:14:32.909Z,13.13
2019-04-06T21:16:25.598Z,13.06
2019-04-06T21:17:25.508Z,13.06
2019-04-06T21:19:18.168Z,13.09
2019-04-06T21:20:18.352Z,13.06
2019-04-06T21:22:10.747Z,13.01
2019-04-06T21:23:10.673Z,13.07
2019-04-06T21:25:03.662Z,13.07
2019-04-06T21:26:03.151Z,12.92
2019-04-06T21:27:55.825Z,13.02
2019-04-06T21:28:55.727Z,12.92
2019-04-06T21:30:48.985Z,12.94
2019-04-06T21:31:48.278Z,12.91
2019-04-06T21:33:40.946Z,12.84
2019-04-06T21:34:40.837Z,12.77
2019-04-06T21:36:33.531Z,12.78
2019-04-06T21:37:33.533Z,12.78
2019-04-06T21:39:26.087Z,12.76
2019-04-06T21:40:26.179Z,12.77
2019-04-06T21:42:18.652Z,12.69
2019-04-06T21:43:18.860Z,12.65
2019-04-06T21:45:11.215Z,12.61
2019-04-06T21:46:11.099Z,12.63
2019-04-06T21:48:04.329Z,12.62
2019-04-06T21:49:03.662Z,12.61
2019-04-06T21:50:56.357Z,12.69
2019-04-06T21:51:56.428Z,12.65
2019-04-06T21:53:48.889Z,12.58
2019-04-06T21:54:48.886Z,12.55
2019-04-06T21:56:41.483Z,12.53
2019-04-06T21:57:41.899Z,12.56
2019-04-06T21:59:34.032Z,12.59
